sensor_id;sensor_type;location;lat;lon;timestamp;P1;durP1;ratioP1;P2;durP2;ratioP2
43224;SDS011;28834;48.720;9.208;2022-09-06T00:01:37;3.57;;;3.10;;
43224;SDS011;28834;48.720;9.208;2022-09-06T00:04:04;4.23;;;3.30;;
43224;SDS011;28834;48.720;9.208;2022-09-06T00:06:29;4.97;;;3.00;;
43224;SDS011;28834;48.720;9.208;2022-09-06T00:08:55;3.83;;;3.53;;
43224;SDS011;28834;48.720;9.208;2022-09-06T00:11:20;4.33;;;3.20;;
43224;SDS011;28834;48.720;9.208;2022-09-06T00:13:46;3.63;;;3.30;;
43224;SDS011;28834;48.720;9.208;2022-09-06T00:16:15;3.73;;;3.30;;
43224;SDS011;28834;48.720;9.208;2022-09-06T00:18:43;3.60;;;3.10;;
43224;SDS011;28834;48.720;9.208;2022-09-06T00:21:14;4.37;;;3.30;;
43224;SDS011;28834;48.720;9.208;2022-09-06T00:23:44;3.97;;;3.03;;
43224;SDS011;28834;48.720;9.208;2022-09-06T00:26:10;3.50;;;3.20;;
43224;SDS011;28834;48.720;9.208;2022-09-06T00:28:37;3.60;;;3.30;;
43224;SDS011;28834;48.720;9.208;2022-09-06T00:31:07;4.80;;;3.63;;
43224;SDS011;28834;48.720;9.208;2022-09-06T00:33:35;3.20;;;2.87;;
43224;SDS011;28834;48.720;9.208;2022-09-06T00:36:01;3.77;;;3.37;;
43224;SDS011;28834;48.720;9.208;2022-09-06T00:38:27;3.30;;;3.00;;
43224;SDS011;28834;48.720;9.208;2022-09-06T00:40:53;3.83;;;3.50;;
43224;SDS011;28834;48.720;9.208;2022-09-06T00:43:18;5.57;;;3.50;;
43224;SDS011;28834;48.720;9.208;2022-09-06T00:45:44;3.13;;;2.80;;
43224;SDS011;28834;48.720;9.208;2022-09-06T00:48:09;3.83;;;3.43;;
43224;SDS011;28834;48.720;9.208;2022-09-06T00:50:35;3.57;;;3.20;;
43224;SDS011;28834;48.720;9.208;2022-09-06T00:53:00;3.77;;;3.47;;
43224;SDS011;28834;48.720;9.208;2022-09-06T00:55:26;4.13;;;3.40;;
43224;SDS011;28834;48.720;9.208;2022-09-06T00:57:52;6.57;;;4.00;;
43224;SDS011;28834;48.720;9.208;2022-09-06T01:00:18;3.97;;;3.67;;
43224;SDS011;28834;48.720;9.208;2022-09-06T01:02:44;3.90;;;3.60;;
43224;SDS011;28834;48.720;9.208;2022-09-06T01:05:11;4.03;;;3.13;;
43224;SDS011;28834;48.720;9.208;2022-09-06T01:16:29;4.43;;;3.67;;
43224;SDS011;28834;48.720;9.208;2022-09-06T01:24:36;5.23;;;3.43;;
43224;SDS011;28834;48.720;9.208;2022-09-06T01:27:33;3.53;;;3.23;;
43224;SDS011;28834;48.720;9.208;2022-09-06T01:30:14;4.13;;;3.83;;
43224;SDS011;28834;48.720;9.208;2022-09-06T01:35:48;4.23;;;3.50;;
43224;SDS011;28834;48.720;9.208;2022-09-06T01:38:18;4.37;;;3.90;;
43224;SDS011;28834;48.720;9.208;2022-09-06T01:40:44;4.23;;;3.60;;
43224;SDS011;28834;48.720;9.208;2022-09-06T01:43:10;5.50;;;4.00;;
43224;SDS011;28834;48.720;9.208;2022-09-06T01:59:32;4.30;;;3.90;;
43224;SDS011;28834;48.720;9.208;2022-09-06T02:02:06;5.60;;;4.20;;
43224;SDS011;28834;48.720;9.208;2022-09-06T02:04:43;4.43;;;4.03;;
43224;SDS011;28834;48.720;9.208;2022-09-06T02:07:23;4.37;;;3.97;;
43224;SDS011;28834;48.720;9.208;2022-09-06T02:09:53;4.27;;;3.87;;
43224;SDS011;28834;48.720;9.208;2022-09-06T02:12:36;4.20;;;3.90;;
43224;SDS011;28834;48.720;9.208;2022-09-06T02:15:06;6.50;;;4.10;;
43224;SDS011;28834;48.720;9.208;2022-09-06T02:17:37;6.77;;;4.47;;
43224;SDS011;28834;48.720;9.208;2022-09-06T02:20:11;4.83;;;4.20;;
43224;SDS011;28834;48.720;9.208;2022-09-06T02:22:43;6.73;;;4.80;;
43224;SDS011;28834;48.720;9.208;2022-09-06T02:25:12;4.33;;;3.93;;
43224;SDS011;28834;48.720;9.208;2022-09-06T02:27:44;5.37;;;4.33;;
43224;SDS011;28834;48.720;9.208;2022-09-06T02:30:10;4.33;;;3.93;;
43224;SDS011;28834;48.720;9.208;2022-09-06T02:32:39;4.40;;;3.60;;
43224;SDS011;28834;48.720;9.208;2022-09-06T02:35:14;4.37;;;3.97;;
43224;SDS011;28834;48.720;9.208;2022-09-06T02:37:41;4.43;;;4.03;;
43224;SDS011;28834;48.720;9.208;2022-09-06T02:40:07;3.57;;;3.27;;
43224;SDS011;28834;48.720;9.208;2022-09-06T02:42:34;5.33;;;3.60;;
43224;SDS011;28834;48.720;9.208;2022-09-06T02:45:00;4.63;;;3.37;;
43224;SDS011;28834;48.720;9.208;2022-09-06T02:47:25;3.50;;;3.20;;
43224;SDS011;28834;48.720;9.208;2022-09-06T02:49:51;4.53;;;3.77;;
43224;SDS011;28834;48.720;9.208;2022-09-06T02:52:16;2.90;;;2.70;;
43224;SDS011;28834;48.720;9.208;2022-09-06T02:54:42;4.33;;;3.50;;
43224;SDS011;28834;48.720;9.208;2022-09-06T02:57:07;3.60;;;3.20;;
43224;SDS011;28834;48.720;9.208;2022-09-06T02:59:33;4.40;;;3.63;;
43224;SDS011;28834;48.720;9.208;2022-09-06T03:01:58;4.77;;;3.93;;
43224;SDS011;28834;48.720;9.208;2022-09-06T03:04:24;10.20;;;5.97;;
43224;SDS011;28834;48.720;9.208;2022-09-06T03:06:49;12.93;;;5.70;;
43224;SDS011;28834;48.720;9.208;2022-09-06T03:09:15;7.00;;;5.27;;
43224;SDS011;28834;48.720;9.208;2022-09-06T03:11:40;8.47;;;5.53;;
43224;SDS011;28834;48.720;9.208;2022-09-06T03:14:06;7.87;;;5.67;;
43224;SDS011;28834;48.720;9.208;2022-09-06T03:16:32;7.07;;;5.33;;
43224;SDS011;28834;48.720;9.208;2022-09-06T03:18:58;8.57;;;5.20;;
43224;SDS011;28834;48.720;9.208;2022-09-06T03:21:24;5.93;;;5.00;;
43224;SDS011;28834;48.720;9.208;2022-09-06T03:23:49;6.03;;;5.47;;
43224;SDS011;28834;48.720;9.208;2022-09-06T03:26:15;5.90;;;4.93;;
43224;SDS011;28834;48.720;9.208;2022-09-06T03:28:40;6.63;;;4.93;;
43224;SDS011;28834;48.720;9.208;2022-09-06T03:31:07;7.87;;;5.87;;
43224;SDS011;28834;48.720;9.208;2022-09-06T03:33:32;5.70;;;5.13;;
43224;SDS011;28834;48.720;9.208;2022-09-06T03:35:59;5.50;;;5.00;;
43224;SDS011;28834;48.720;9.208;2022-09-06T03:38:25;8.10;;;5.40;;
43224;SDS011;28834;48.720;9.208;2022-09-06T03:40:52;5.67;;;5.07;;
43224;SDS011;28834;48.720;9.208;2022-09-06T03:43:18;6.47;;;5.37;;
43224;SDS011;28834;48.720;9.208;2022-09-06T03:45:49;6.20;;;5.17;;
43224;SDS011;28834;48.720;9.208;2022-09-06T03:48:17;5.50;;;5.00;;
43224;SDS011;28834;48.720;9.208;2022-09-06T03:50:44;5.23;;;4.73;;
43224;SDS011;28834;48.720;9.208;2022-09-06T03:53:10;5.83;;;5.33;;
43224;SDS011;28834;48.720;9.208;2022-09-06T03:55:36;8.17;;;5.70;;
43224;SDS011;28834;48.720;9.208;2022-09-06T03:58:02;8.17;;;5.43;;
43224;SDS011;28834;48.720;9.208;2022-09-06T04:00:28;8.13;;;5.73;;
43224;SDS011;28834;48.720;9.208;2022-09-06T04:02:53;5.13;;;4.73;;
43224;SDS011;28834;48.720;9.208;2022-09-06T04:05:19;7.37;;;5.13;;
43224;SDS011;28834;48.720;9.208;2022-09-06T04:07:44;5.90;;;5.30;;
43224;SDS011;28834;48.720;9.208;2022-09-06T04:10:10;5.77;;;5.20;;
43224;SDS011;28834;48.720;9.208;2022-09-06T04:12:35;5.83;;;5.33;;
43224;SDS011;28834;48.720;9.208;2022-09-06T04:15:01;5.17;;;4.60;;
43224;SDS011;28834;48.720;9.208;2022-09-06T04:17:26;6.77;;;4.97;;
43224;SDS011;28834;48.720;9.208;2022-09-06T04:19:52;8.63;;;5.97;;
43224;SDS011;28834;48.720;9.208;2022-09-06T04:22:17;6.43;;;5.80;;
43224;SDS011;28834;48.720;9.208;2022-09-06T04:24:43;6.57;;;6.03;;
43224;SDS011;28834;48.720;9.208;2022-09-06T04:27:08;6.83;;;6.10;;
43224;SDS011;28834;48.720;9.208;2022-09-06T04:29:34;6.20;;;5.70;;
43224;SDS011;28834;48.720;9.208;2022-09-06T04:31:59;5.97;;;5.17;;
43224;SDS011;28834;48.720;9.208;2022-09-06T04:34:25;6.50;;;5.83;;
43224;SDS011;28834;48.720;9.208;2022-09-06T04:36:50;5.97;;;5.00;;
43224;SDS011;28834;48.720;9.208;2022-09-06T04:39:16;6.90;;;5.17;;
43224;SDS011;28834;48.720;9.208;2022-09-06T04:41:41;5.80;;;5.20;;
43224;SDS011;28834;48.720;9.208;2022-09-06T04:44:07;5.40;;;4.90;;
43224;SDS011;28834;48.720;9.208;2022-09-06T04:46:33;6.63;;;4.87;;
43224;SDS011;28834;48.720;9.208;2022-09-06T04:48:58;5.87;;;5.37;;
43224;SDS011;28834;48.720;9.208;2022-09-06T04:51:25;6.13;;;5.53;;
43224;SDS011;28834;48.720;9.208;2022-09-06T04:53:51;7.80;;;5.73;;
43224;SDS011;28834;48.720;9.208;2022-09-06T04:56:21;6.50;;;6.00;;
43224;SDS011;28834;48.720;9.208;2022-09-06T04:58:48;6.70;;;6.10;;
43224;SDS011;28834;48.720;9.208;2022-09-06T05:01:14;7.50;;;6.90;;
43224;SDS011;28834;48.720;9.208;2022-09-06T05:03:40;7.67;;;7.07;;
43224;SDS011;28834;48.720;9.208;2022-09-06T05:06:10;7.93;;;7.13;;
43224;SDS011;28834;48.720;9.208;2022-09-06T05:08:47;6.73;;;6.03;;
43224;SDS011;28834;48.720;9.208;2022-09-06T05:11:13;7.37;;;6.73;;
43224;SDS011;28834;48.720;9.208;2022-09-06T05:13:38;8.70;;;6.93;;
43224;SDS011;28834;48.720;9.208;2022-09-06T05:16:05;8.00;;;7.20;;
43224;SDS011;28834;48.720;9.208;2022-09-06T05:18:33;7.13;;;6.53;;
43224;SDS011;28834;48.720;9.208;2022-09-06T05:20:59;6.50;;;5.77;;
43224;SDS011;28834;48.720;9.208;2022-09-06T05:23:25;8.00;;;6.80;;
43224;SDS011;28834;48.720;9.208;2022-09-06T05:25:51;6.43;;;5.83;;
43224;SDS011;28834;48.720;9.208;2022-09-06T05:28:17;8.80;;;6.63;;
43224;SDS011;28834;48.720;9.208;2022-09-06T05:30:42;8.20;;;7.50;;
43224;SDS011;28834;48.720;9.208;2022-09-06T05:33:08;7.57;;;6.97;;
43224;SDS011;28834;48.720;9.208;2022-09-06T05:35:35;8.07;;;7.27;;
43224;SDS011;28834;48.720;9.208;2022-09-06T05:38:01;7.70;;;7.00;;
43224;SDS011;28834;48.720;9.208;2022-09-06T05:40:27;7.33;;;6.73;;
43224;SDS011;28834;48.720;9.208;2022-09-06T05:42:52;7.30;;;6.60;;
43224;SDS011;28834;48.720;9.208;2022-09-06T05:45:18;7.93;;;7.13;;
43224;SDS011;28834;48.720;9.208;2022-09-06T05:47:43;7.10;;;6.40;;
43224;SDS011;28834;48.720;9.208;2022-09-06T05:50:09;7.37;;;6.67;;
43224;SDS011;28834;48.720;9.208;2022-09-06T05:52:35;8.10;;;6.93;;
43224;SDS011;28834;48.720;9.208;2022-09-06T05:55:01;6.90;;;6.30;;
43224;SDS011;28834;48.720;9.208;2022-09-06T05:57:27;8.10;;;7.30;;
43224;SDS011;28834;48.720;9.208;2022-09-06T05:59:53;8.20;;;7.30;;
43224;SDS011;28834;48.720;9.208;2022-09-06T06:02:19;9.70;;;7.80;;
43224;SDS011;28834;48.720;9.208;2022-09-06T06:04:45;7.90;;;7.10;;
43224;SDS011;28834;48.720;9.208;2022-09-06T06:07:11;7.13;;;6.43;;
43224;SDS011;28834;48.720;9.208;2022-09-06T06:09:36;7.03;;;6.07;;
43224;SDS011;28834;48.720;9.208;2022-09-06T06:12:02;7.33;;;6.17;;
43224;SDS011;28834;48.720;9.208;2022-09-06T06:14:28;7.50;;;6.37;;
43224;SDS011;28834;48.720;9.208;2022-09-06T06:16:53;7.23;;;6.53;;
43224;SDS011;28834;48.720;9.208;2022-09-06T06:19:19;8.40;;;6.50;;
43224;SDS011;28834;48.720;9.208;2022-09-06T06:21:44;10.13;;;6.53;;
43224;SDS011;28834;48.720;9.208;2022-09-06T06:24:10;8.73;;;7.07;;
43224;SDS011;28834;48.720;9.208;2022-09-06T06:26:35;7.63;;;6.50;;
43224;SDS011;28834;48.720;9.208;2022-09-06T06:29:02;8.90;;;6.50;;
43224;SDS011;28834;48.720;9.208;2022-09-06T06:31:30;8.13;;;6.80;;
43224;SDS011;28834;48.720;9.208;2022-09-06T06:33:56;7.40;;;6.60;;
43224;SDS011;28834;48.720;9.208;2022-09-06T06:36:24;6.93;;;6.00;;
43224;SDS011;28834;48.720;9.208;2022-09-06T06:38:51;7.47;;;6.77;;
43224;SDS011;28834;48.720;9.208;2022-09-06T06:41:19;7.57;;;6.87;;
43224;SDS011;28834;48.720;9.208;2022-09-06T06:43:49;8.13;;;7.30;;
43224;SDS011;28834;48.720;9.208;2022-09-06T06:46:19;8.47;;;7.67;;
43224;SDS011;28834;48.720;9.208;2022-09-06T06:48:46;7.80;;;7.10;;
43224;SDS011;28834;48.720;9.208;2022-09-06T06:51:13;7.67;;;6.87;;
43224;SDS011;28834;48.720;9.208;2022-09-06T06:53:40;7.90;;;6.97;;
43224;SDS011;28834;48.720;9.208;2022-09-06T06:56:20;8.03;;;7.20;;
43224;SDS011;28834;48.720;9.208;2022-09-06T06:58:48;7.17;;;6.57;;
43224;SDS011;28834;48.720;9.208;2022-09-06T07:01:16;8.07;;;7.30;;
43224;SDS011;28834;48.720;9.208;2022-09-06T07:03:42;9.23;;;7.23;;
43224;SDS011;28834;48.720;9.208;2022-09-06T07:06:08;7.70;;;6.53;;
43224;SDS011;28834;48.720;9.208;2022-09-06T07:08:34;8.23;;;7.07;;
43224;SDS011;28834;48.720;9.208;2022-09-06T07:11:01;6.60;;;6.00;;
43224;SDS011;28834;48.720;9.208;2022-09-06T07:13:27;7.57;;;5.97;;
43224;SDS011;28834;48.720;9.208;2022-09-06T07:18:39;6.70;;;6.00;;
43224;SDS011;28834;48.720;9.208;2022-09-06T07:21:13;7.57;;;5.40;;
43224;SDS011;28834;48.720;9.208;2022-09-06T07:23:41;7.37;;;5.60;;
43224;SDS011;28834;48.720;9.208;2022-09-06T07:26:12;7.07;;;4.90;;
43224;SDS011;28834;48.720;9.208;2022-09-06T07:28:41;6.57;;;5.13;;
43224;SDS011;28834;48.720;9.208;2022-09-06T07:31:07;6.63;;;4.80;;
43224;SDS011;28834;48.720;9.208;2022-09-06T07:33:35;5.47;;;4.77;;
43224;SDS011;28834;48.720;9.208;2022-09-06T07:36:02;6.60;;;5.10;;
43224;SDS011;28834;48.720;9.208;2022-09-06T07:38:29;6.27;;;4.63;;
43224;SDS011;28834;48.720;9.208;2022-09-06T07:40:56;8.63;;;5.50;;
43224;SDS011;28834;48.720;9.208;2022-09-06T07:43:26;9.33;;;4.90;;
43224;SDS011;28834;48.720;9.208;2022-09-06T07:48:35;6.33;;;3.80;;
43224;SDS011;28834;48.720;9.208;2022-09-06T07:51:13;5.90;;;3.97;;
43224;SDS011;28834;48.720;9.208;2022-09-06T07:53:46;5.83;;;4.03;;
43224;SDS011;28834;48.720;9.208;2022-09-06T07:56:14;7.20;;;4.00;;
43224;SDS011;28834;48.720;9.208;2022-09-06T07:58:40;6.67;;;3.83;;
43224;SDS011;28834;48.720;9.208;2022-09-06T08:01:39;5.00;;;3.50;;
43224;SDS011;28834;48.720;9.208;2022-09-06T08:04:00;13.73;;;4.00;;
43224;SDS011;28834;48.720;9.208;2022-09-06T08:06:28;4.80;;;3.20;;
43224;SDS011;28834;48.720;9.208;2022-09-06T08:08:55;3.63;;;3.07;;
43224;SDS011;28834;48.720;9.208;2022-09-06T08:11:22;4.00;;;3.63;;
43224;SDS011;28834;48.720;9.208;2022-09-06T08:13:49;7.87;;;3.10;;
43224;SDS011;28834;48.720;9.208;2022-09-06T08:16:15;4.03;;;3.33;;
43224;SDS011;28834;48.720;9.208;2022-09-06T08:18:41;5.73;;;3.10;;
43224;SDS011;28834;48.720;9.208;2022-09-06T08:21:07;3.90;;;3.03;;
43224;SDS011;28834;48.720;9.208;2022-09-06T08:23:35;5.93;;;3.40;;
43224;SDS011;28834;48.720;9.208;2022-09-06T08:26:07;5.43;;;3.50;;
43224;SDS011;28834;48.720;9.208;2022-09-06T08:28:33;7.20;;;3.50;;
43224;SDS011;28834;48.720;9.208;2022-09-06T08:31:08;3.90;;;3.47;;
43224;SDS011;28834;48.720;9.208;2022-09-06T08:33:39;5.07;;;3.33;;
43224;SDS011;28834;48.720;9.208;2022-09-06T08:36:05;3.57;;;2.73;;
43224;SDS011;28834;48.720;9.208;2022-09-06T08:38:32;5.80;;;2.47;;
43224;SDS011;28834;48.720;9.208;2022-09-06T08:41:09;3.20;;;2.90;;
43224;SDS011;28834;48.720;9.208;2022-09-06T08:43:38;4.13;;;3.00;;
43224;SDS011;28834;48.720;9.208;2022-09-06T08:46:05;5.03;;;3.00;;
43224;SDS011;28834;48.720;9.208;2022-09-06T08:48:33;8.17;;;2.93;;
43224;SDS011;28834;48.720;9.208;2022-09-06T08:51:07;5.70;;;3.30;;
43224;SDS011;28834;48.720;9.208;2022-09-06T08:53:59;4.43;;;3.27;;
43224;SDS011;28834;48.720;9.208;2022-09-06T08:56:55;4.07;;;3.47;;
43224;SDS011;28834;48.720;9.208;2022-09-06T08:59:37;6.07;;;2.80;;
43224;SDS011;28834;48.720;9.208;2022-09-06T09:02:19;5.20;;;2.97;;
43224;SDS011;28834;48.720;9.208;2022-09-06T09:04:47;7.67;;;3.20;;
43224;SDS011;28834;48.720;9.208;2022-09-06T09:07:28;3.80;;;3.15;;
43224;SDS011;28834;48.720;9.208;2022-09-06T09:10:11;5.53;;;2.95;;
43224;SDS011;28834;48.720;9.208;2022-09-06T09:12:44;4.20;;;3.50;;
43224;SDS011;28834;48.720;9.208;2022-09-06T09:15:12;6.90;;;3.03;;
43224;SDS011;28834;48.720;9.208;2022-09-06T09:17:40;5.82;;;3.17;;
43224;SDS011;28834;48.720;9.208;2022-09-06T09:20:06;5.90;;;3.40;;
43224;SDS011;28834;48.720;9.208;2022-09-06T09:22:33;5.82;;;3.08;;
43224;SDS011;28834;48.720;9.208;2022-09-06T09:24:59;4.95;;;3.03;;
43224;SDS011;28834;48.720;9.208;2022-09-06T09:27:26;6.70;;;2.55;;
43224;SDS011;28834;48.720;9.208;2022-09-06T09:32:38;4.55;;;2.70;;
43224;SDS011;28834;48.720;9.208;2022-09-06T09:35:14;7.10;;;3.10;;
43224;SDS011;28834;48.720;9.208;2022-09-06T09:37:42;6.45;;;2.55;;
43224;SDS011;28834;48.720;9.208;2022-09-06T09:40:13;4.65;;;2.58;;
43224;SDS011;28834;48.720;9.208;2022-09-06T09:43:07;5.03;;;3.15;;
43224;SDS011;28834;48.720;9.208;2022-09-06T09:45:43;6.63;;;3.15;;
43224;SDS011;28834;48.720;9.208;2022-09-06T09:48:25;4.88;;;2.80;;
43224;SDS011;28834;48.720;9.208;2022-09-06T09:50:51;7.40;;;3.10;;
43224;SDS011;28834;48.720;9.208;2022-09-06T09:53:19;6.95;;;2.63;;
43224;SDS011;28834;48.720;9.208;2022-09-06T09:55:46;7.13;;;3.40;;
43224;SDS011;28834;48.720;9.208;2022-09-06T10:01:51;8.27;;;2.95;;
43224;SDS011;28834;48.720;9.208;2022-09-06T10:04:01;5.65;;;2.42;;
43224;SDS011;28834;48.720;9.208;2022-09-06T10:06:29;7.35;;;2.70;;
43224;SDS011;28834;48.720;9.208;2022-09-06T10:08:54;6.03;;;2.85;;
43224;SDS011;28834;48.720;9.208;2022-09-06T10:11:36;7.10;;;3.10;;
43224;SDS011;28834;48.720;9.208;2022-09-06T10:14:10;4.55;;;2.50;;
43224;SDS011;28834;48.720;9.208;2022-09-06T10:16:41;4.50;;;2.92;;
43224;SDS011;28834;48.720;9.208;2022-09-06T10:19:20;4.22;;;2.22;;
43224;SDS011;28834;48.720;9.208;2022-09-06T10:27:42;7.10;;;3.00;;
43224;SDS011;28834;48.720;9.208;2022-09-06T10:30:34;8.10;;;3.53;;
43224;SDS011;28834;48.720;9.208;2022-09-06T10:33:06;7.10;;;2.67;;
43224;SDS011;28834;48.720;9.208;2022-09-06T10:35:52;6.63;;;3.05;;
43224;SDS011;28834;48.720;9.208;2022-09-06T10:38:33;8.10;;;2.72;;
43224;SDS011;28834;48.720;9.208;2022-09-06T10:44:53;4.55;;;2.60;;
43224;SDS011;28834;48.720;9.208;2022-09-06T10:47:07;5.70;;;3.63;;
43224;SDS011;28834;48.720;9.208;2022-09-06T10:49:36;5.85;;;3.20;;
43224;SDS011;28834;48.720;9.208;2022-09-06T10:52:05;6.95;;;3.03;;
43224;SDS011;28834;48.720;9.208;2022-09-06T10:54:36;7.38;;;3.08;;
43224;SDS011;28834;48.720;9.208;2022-09-06T10:57:15;4.80;;;3.10;;
43224;SDS011;28834;48.720;9.208;2022-09-06T10:59:56;3.92;;;3.00;;
43224;SDS011;28834;48.720;9.208;2022-09-06T11:05:15;4.65;;;2.85;;
43224;SDS011;28834;48.720;9.208;2022-09-06T11:07:52;7.15;;;2.97;;
43224;SDS011;28834;48.720;9.208;2022-09-06T11:10:29;4.32;;;3.10;;
43224;SDS011;28834;48.720;9.208;2022-09-06T11:18:26;5.97;;;3.85;;
43224;SDS011;28834;48.720;9.208;2022-09-06T11:21:17;7.05;;;3.33;;
43224;SDS011;28834;48.720;9.208;2022-09-06T11:23:53;6.28;;;3.50;;
43224;SDS011;28834;48.720;9.208;2022-09-06T11:29:19;5.45;;;3.38;;
43224;SDS011;28834;48.720;9.208;2022-09-06T11:32:00;3.53;;;3.20;;
43224;SDS011;28834;48.720;9.208;2022-09-06T11:34:34;9.90;;;3.30;;
43224;SDS011;28834;48.720;9.208;2022-09-06T11:37:00;6.18;;;3.55;;
43224;SDS011;28834;48.720;9.208;2022-09-06T11:39:37;4.70;;;2.88;;
43224;SDS011;28834;48.720;9.208;2022-09-06T11:42:09;5.70;;;2.90;;
43224;SDS011;28834;48.720;9.208;2022-09-06T11:52:52;4.72;;;3.00;;
43224;SDS011;28834;48.720;9.208;2022-09-06T11:55:22;5.80;;;3.30;;
43224;SDS011;28834;48.720;9.208;2022-09-06T11:57:56;4.22;;;3.03;;
43224;SDS011;28834;48.720;9.208;2022-09-06T12:00:23;10.38;;;3.47;;
43224;SDS011;28834;48.720;9.208;2022-09-06T12:02:50;6.18;;;3.15;;
43224;SDS011;28834;48.720;9.208;2022-09-06T12:05:17;7.82;;;2.78;;
43224;SDS011;28834;48.720;9.208;2022-09-06T12:10:59;6.43;;;3.25;;
43224;SDS011;28834;48.720;9.208;2022-09-06T12:16:19;7.55;;;2.63;;
43224;SDS011;28834;48.720;9.208;2022-09-06T12:24:07;5.00;;;2.67;;
43224;SDS011;28834;48.720;9.208;2022-09-06T12:29:46;7.07;;;2.88;;
43224;SDS011;28834;48.720;9.208;2022-09-06T12:32:19;3.08;;;2.28;;
43224;SDS011;28834;48.720;9.208;2022-09-06T12:34:48;7.35;;;2.63;;
43224;SDS011;28834;48.720;9.208;2022-09-06T12:37:27;5.43;;;3.08;;
43224;SDS011;28834;48.720;9.208;2022-09-06T12:39:58;6.85;;;2.30;;
43224;SDS011;28834;48.720;9.208;2022-09-06T12:42:24;8.35;;;3.40;;
43224;SDS011;28834;48.720;9.208;2022-09-06T12:44:50;5.35;;;2.50;;
43224;SDS011;28834;48.720;9.208;2022-09-06T12:47:29;8.05;;;3.30;;
43224;SDS011;28834;48.720;9.208;2022-09-06T12:52:47;6.55;;;2.65;;
43224;SDS011;28834;48.720;9.208;2022-09-06T12:55:16;6.47;;;3.35;;
43224;SDS011;28834;48.720;9.208;2022-09-06T12:58:04;5.38;;;2.58;;
43224;SDS011;28834;48.720;9.208;2022-09-06T13:00:51;3.95;;;2.30;;
43224;SDS011;28834;48.720;9.208;2022-09-06T13:03:28;5.85;;;3.13;;
43224;SDS011;28834;48.720;9.208;2022-09-06T13:06:04;6.50;;;3.00;;
43224;SDS011;28834;48.720;9.208;2022-09-06T13:08:41;5.07;;;2.50;;
43224;SDS011;28834;48.720;9.208;2022-09-06T13:11:12;5.65;;;2.38;;
43224;SDS011;28834;48.720;9.208;2022-09-06T13:13:46;4.15;;;2.42;;
43224;SDS011;28834;48.720;9.208;2022-09-06T13:18:49;5.45;;;2.40;;
43224;SDS011;28834;48.720;9.208;2022-09-06T13:21:31;8.13;;;2.30;;
43224;SDS011;28834;48.720;9.208;2022-09-06T13:23:57;6.68;;;2.42;;
43224;SDS011;28834;48.720;9.208;2022-09-06T13:26:34;6.63;;;2.80;;
43224;SDS011;28834;48.720;9.208;2022-09-06T13:31:44;7.97;;;3.30;;
43224;SDS011;28834;48.720;9.208;2022-09-06T13:34:18;3.25;;;2.65;;
43224;SDS011;28834;48.720;9.208;2022-09-06T13:36:59;5.75;;;3.47;;
43224;SDS011;28834;48.720;9.208;2022-09-06T13:39:48;7.43;;;3.42;;
43224;SDS011;28834;48.720;9.208;2022-09-06T13:42:22;7.63;;;3.97;;
43224;SDS011;28834;48.720;9.208;2022-09-06T13:45:15;7.57;;;3.72;;
43224;SDS011;28834;48.720;9.208;2022-09-06T13:47:47;5.93;;;3.70;;
43224;SDS011;28834;48.720;9.208;2022-09-06T13:50:13;4.35;;;3.92;;
43224;SDS011;28834;48.720;9.208;2022-09-06T13:52:38;7.10;;;4.17;;
43224;SDS011;28834;48.720;9.208;2022-09-06T13:55:04;7.93;;;4.00;;
43224;SDS011;28834;48.720;9.208;2022-09-06T13:57:31;5.17;;;4.10;;
43224;SDS011;28834;48.720;9.208;2022-09-06T13:59:56;4.50;;;3.57;;
43224;SDS011;28834;48.720;9.208;2022-09-06T14:02:22;6.53;;;3.80;;
43224;SDS011;28834;48.720;9.208;2022-09-06T14:04:48;4.53;;;3.40;;
43224;SDS011;28834;48.720;9.208;2022-09-06T14:07:14;6.80;;;4.17;;
43224;SDS011;28834;48.720;9.208;2022-09-06T14:09:40;4.60;;;4.00;;
43224;SDS011;28834;48.720;9.208;2022-09-06T14:12:05;6.53;;;3.67;;
43224;SDS011;28834;48.720;9.208;2022-09-06T14:14:32;4.53;;;3.63;;
43224;SDS011;28834;48.720;9.208;2022-09-06T14:16:58;5.57;;;3.00;;
43224;SDS011;28834;48.720;9.208;2022-09-06T14:19:23;6.85;;;4.00;;
43224;SDS011;28834;48.720;9.208;2022-09-06T14:21:49;8.73;;;4.13;;
43224;SDS011;28834;48.720;9.208;2022-09-06T14:24:15;6.22;;;4.15;;
43224;SDS011;28834;48.720;9.208;2022-09-06T14:26:41;5.45;;;3.78;;
43224;SDS011;28834;48.720;9.208;2022-09-06T14:29:06;4.05;;;3.10;;
43224;SDS011;28834;48.720;9.208;2022-09-06T14:31:32;5.57;;;3.70;;
43224;SDS011;28834;48.720;9.208;2022-09-06T14:33:58;4.22;;;3.00;;
43224;SDS011;28834;48.720;9.208;2022-09-06T14:36:26;4.80;;;3.40;;
43224;SDS011;28834;48.720;9.208;2022-09-06T14:38:55;5.37;;;3.50;;
43224;SDS011;28834;48.720;9.208;2022-09-06T14:41:21;5.93;;;3.70;;
43224;SDS011;28834;48.720;9.208;2022-09-06T14:43:50;5.30;;;3.47;;
43224;SDS011;28834;48.720;9.208;2022-09-06T14:46:19;4.25;;;3.17;;
43224;SDS011;28834;48.720;9.208;2022-09-06T14:48:45;4.78;;;2.85;;
43224;SDS011;28834;48.720;9.208;2022-09-06T14:53:39;4.88;;;3.28;;
43224;SDS011;28834;48.720;9.208;2022-09-06T14:56:05;7.85;;;2.72;;
43224;SDS011;28834;48.720;9.208;2022-09-06T14:58:32;4.93;;;3.03;;
43224;SDS011;28834;48.720;9.208;2022-09-06T15:03:59;3.90;;;3.13;;
43224;SDS011;28834;48.720;9.208;2022-09-06T15:06:29;6.57;;;2.90;;
43224;SDS011;28834;48.720;9.208;2022-09-06T15:08:56;6.35;;;2.95;;
43224;SDS011;28834;48.720;9.208;2022-09-06T15:11:33;4.78;;;2.63;;
43224;SDS011;28834;48.720;9.208;2022-09-06T15:14:00;4.65;;;3.00;;
43224;SDS011;28834;48.720;9.208;2022-09-06T15:16:28;4.53;;;2.78;;
43224;SDS011;28834;48.720;9.208;2022-09-06T15:18:53;7.53;;;2.75;;
43224;SDS011;28834;48.720;9.208;2022-09-06T15:21:19;6.38;;;2.75;;
43224;SDS011;28834;48.720;9.208;2022-09-06T15:23:45;5.82;;;3.35;;
43224;SDS011;28834;48.720;9.208;2022-09-06T15:26:11;6.47;;;3.05;;
43224;SDS011;28834;48.720;9.208;2022-09-06T15:28:38;7.97;;;3.67;;
43224;SDS011;28834;48.720;9.208;2022-09-06T15:31:06;4.07;;;2.80;;
43224;SDS011;28834;48.720;9.208;2022-09-06T15:33:32;3.72;;;2.83;;
43224;SDS011;28834;48.720;9.208;2022-09-06T15:35:59;3.67;;;2.50;;
43224;SDS011;28834;48.720;9.208;2022-09-06T15:38:30;4.38;;;2.58;;
43224;SDS011;28834;48.720;9.208;2022-09-06T15:41:03;2.95;;;2.40;;
43224;SDS011;28834;48.720;9.208;2022-09-06T15:43:31;4.50;;;3.60;;
43224;SDS011;28834;48.720;9.208;2022-09-06T15:45:58;5.05;;;3.65;;
43224;SDS011;28834;48.720;9.208;2022-09-06T15:48:24;4.78;;;3.53;;
43224;SDS011;28834;48.720;9.208;2022-09-06T15:50:50;7.47;;;4.38;;
43224;SDS011;28834;48.720;9.208;2022-09-06T15:53:16;5.03;;;3.50;;
43224;SDS011;28834;48.720;9.208;2022-09-06T15:55:41;6.00;;;3.13;;
43224;SDS011;28834;48.720;9.208;2022-09-06T15:58:20;9.10;;;3.95;;
43224;SDS011;28834;48.720;9.208;2022-09-06T16:00:46;4.18;;;2.67;;
43224;SDS011;28834;48.720;9.208;2022-09-06T16:03:23;4.97;;;2.60;;
43224;SDS011;28834;48.720;9.208;2022-09-06T16:05:48;4.15;;;2.45;;
43224;SDS011;28834;48.720;9.208;2022-09-06T16:08:14;4.93;;;2.78;;
43224;SDS011;28834;48.720;9.208;2022-09-06T16:10:39;3.08;;;2.55;;
43224;SDS011;28834;48.720;9.208;2022-09-06T16:13:05;4.57;;;2.75;;
43224;SDS011;28834;48.720;9.208;2022-09-06T16:15:30;4.50;;;2.80;;
43224;SDS011;28834;48.720;9.208;2022-09-06T16:17:56;4.95;;;3.10;;
43224;SDS011;28834;48.720;9.208;2022-09-06T16:20:22;5.65;;;2.83;;
43224;SDS011;28834;48.720;9.208;2022-09-06T16:22:47;6.13;;;2.53;;
43224;SDS011;28834;48.720;9.208;2022-09-06T16:25:13;6.80;;;3.08;;
43224;SDS011;28834;48.720;9.208;2022-09-06T16:27:39;5.88;;;2.60;;
43224;SDS011;28834;48.720;9.208;2022-09-06T16:30:04;4.88;;;3.00;;
43224;SDS011;28834;48.720;9.208;2022-09-06T16:32:31;5.10;;;2.95;;
43224;SDS011;28834;48.720;9.208;2022-09-06T16:34:56;4.20;;;2.72;;
43224;SDS011;28834;48.720;9.208;2022-09-06T16:37:22;4.43;;;2.83;;
43224;SDS011;28834;48.720;9.208;2022-09-06T16:39:48;6.07;;;2.88;;